O'tomne en Savoie La Féclaz (73) - D

Date : 30/09/2012
Distance : 3,700 km

Place Nom Licence Catégorie Club Temps min/km CN à J-60 Points Différence Nouveau CN
1 PERRIN Mathieu 8976 H14 4201RA 0:33:38 9'05 5269 6411 +1142 5423
2 BODY Mathilde 10184 D16 7305RA 0:42:57 11'36 5246 5020 -226 5332
3 DERMINE Jean 1848 H60 3801RA 0:46:43 12'37 6210 4615 -1595 6264
4 BASSET Juliette 12398 D14 6911RA 0:49:07 13'16 3688 4390 +702 3751
5 VUITTON Marie 18842 D14 6911RA 0:51:37 13'57 3822 4177 +355 3944
6 BORNARD Julie 9402 D16 7305RA 0:51:42 13'58 4607 4170 -437 4729
7 DUDOIGNON Chloé 18089 D14 2605RA 0:54:50 14'49 3443 3932 +489 3620
8 DROIN Solène 17925 D16 4201RA 0:54:51 14'49 5083 3931 -1152 5257
9 PONCET Jean-Pierre 16756 H65 3913FC 0:55:48 15'04 5992 3864 -2128 5446
10 BASSET Fiona 23384 D16 6911RA 0:56:39 15'18 4204 3806 -398 4281
11 VALETTE Marion 10430 D16 6913RA 0:57:31 15'32 3794 3749 -45 3980
12 RIVOLLIER Isaline 22451 D16 4201RA 0:58:56 15'55 4296 3659 -637 4252
13 STARKE Paula 26505 D16 6913RA 0:59:39 16'07 3615 3470
14 MASCARELL Henri 8928 H60 6911RA 1:03:12 17'04 5519 3412 -2107 5303
15 GOLMARD Christian 2669 H65 2101BO 1:03:36 17'11 4662 3390 -1272 4166
16 JOUNEAU Agathe 14402 D14 3810RA 1:03:42 17'12 3341 3385 +44 3497
17 BONORA Marine 11542 D16 6906RA 1:06:29 17'58 3661 3243 -418 3683
18 BAILLEUL Jean-Paul 9165 H55 6009PI 1:13:48 19'56 4448 2922 -1526 4503
19 RAGACHE Jean-Claude 7147 H60 3811RA 1:16:33 20'41 4514 2817 -1697 4272
20 THIEVENAZ Roland 9230 H60 3811RA 1:17:34 20'57 4955 2780 -2175 4799
21 JACOMINO Mireille 277 D50 3801RA 1:19:47 21'33 4108 2702 -1406 4073
22 GENNARO Leslie 20863 D16 3811RA 1:24:05 22'43 3304 2564 -740 3304
23 ROUX Marie Françoise 25236 D50 4201RA 1:26:07 23'16 3832 2504 -1328 3832
24 LASSALLE J-Paul 1677 H65 0111RA 1:28:20 23'52 2941 2441 -500 2814
25 BOURRIN M-Francoise 807 D55 4203RA 1:30:00 24'19 3111 2396 -715 3194
26 GRATIEN Magali 10285 D21 7403RA 1:31:11 24'38 3318 2365 -953 3318
27 ANNE Roger 1673 H60 0111RA 1:32:53 25'06 4476 2321 -2155 4307
28 FERRAND M-Christine 8626 D55 3811RA 1:33:21 25'13 3311 2310 -1001 2940
29 GRATIEN Nathalie 10283 D45 7403RA 1:34:24 25'30 3249 2284 -965 3033
30 SLIMAN Jacques 4537 H60 0503PR 1:37:48 26'25 4007 2205 -1802 3954
31 TESSIER Christel 23871 D40 3801RA 1:38:46 26'41 2888 2183 -705 2682
32 PITAVAL Sylvie 12060 D50 4201RA 1:39:12 26'48 3811 2173 -1638 3416
33 TESSIER Jean-marc 23870 H40 3801RA 1:39:59 27'01 3136 2156 -980 2707
34 VALETTE Isabelle 2270 D40 6913RA 1:40:21 27'07 3422 2149 -1273 3370
35 BOUCHERLE Ghislaine 4479 D60 3801RA 1:40:52 27'15 3285 2138 -1147 3285
36 FALGA Beatrice 12403 D16 6911RA 1:41:16 27'22 3874 2129 -1745 3678
37 EUZEN J-Paul 16403 H70 6911RA 1:41:38 27'28 2652 2121 -531 2652
38 DEGORS Marine 25439 D16 3809RA 1:43:06 27'51 2144 2091 -53 2198
39 GUET Martine 11810 D55 6906RA 1:43:59 28'06 2828 2074 -754 2828
40 MOLLARET Arielle 14534 D50 7404RA 1:46:12 28'42 2670 2030 -640 2551
41 TIRAVY Laurence 23221 D40 6906RA 1:48:38 29'21 2512 1985 -527 2547
42 GIBIAT Danielle 3547 D55 8405PR 1:48:44 29'23 3476 1983 -1493 3166
43 PONCET Catherine 16755 D50 3913FC 1:56:23 31'27 3318 1853 -1465 3318
44 VILLEDIEU Martine 13752 D55 6913RA 1:58:39 32'04 3566 1817 -1749 3583
45 LENFANT Chantal 10264 D55 3811RA 2:02:27 33'05 3077 1761 -1316 2832
46 CATMUR virginia 25103 D55 0503PR 2:07:44 34'31 1785 1688 -97 1799
47 GASTINI Katia 24928 D40 7307RA 2:17:15 37'05 2856 1571 -1285 2602
48 BOUILLET Geneviève 8944 D60 3811RA 2:31:03 40'49 2499 1427 -1072 2499
49 RIVOLLIER Stéphanie 24185 D40 4201RA 2:54:10 47'04 1238 1031
50 DROIN Marie-helene 21209 D45 4201RA 2:56:13 47'37 0 1224 1140
DERMINE Isabelle 1847 D50 3801RA pm None 4924 0 4769
THIEVENAZ Francoise 19672 D60 3811RA pm None 1864 0 1864
FORAY Alexandre 25609 H35 3811RA pm None 0 0 0
SINIBALDI Marc 1347 H70 3801RA pm None 4587 0 4587